createdAt,value
2018-01-27T00:02:38.232Z,13.40
2018-01-27T00:07:41.810Z,14.57
2018-01-27T00:12:45.309Z,15.00
2018-01-27T00:17:49.214Z,14.82
2018-01-27T00:22:53.647Z,13.73
2018-01-27T00:27:57.876Z,13.37
2018-01-27T00:33:02.473Z,15.23
2018-01-27T00:38:07.071Z,14.80
2018-01-27T00:43:10.185Z,13.62
2018-01-27T00:48:13.674Z,14.13
2018-01-27T00:53:17.152Z,15.13
2018-01-27T00:58:21.648Z,14.20
2018-01-27T01:03:25.145Z,15.33
2018-01-27T01:08:29.585Z,15.53
2018-01-27T01:13:32.693Z,14.23
2018-01-27T01:18:36.553Z,15.90
2018-01-27T01:23:40.053Z,15.37
2018-01-27T01:28:43.209Z,15.13
2018-01-27T01:33:47.445Z,15.88
2018-01-27T01:38:50.545Z,15.27
2018-01-27T01:44:00.547Z,15.90
2018-01-27T01:49:22.444Z,15.60
2018-01-27T01:54:26.328Z,16.00
2018-01-27T01:59:30.807Z,14.80
2018-01-27T02:04:35.256Z,16.23
2018-01-27T02:09:39.852Z,15.73
2018-01-27T02:14:44.465Z,16.50
2018-01-27T02:19:48.329Z,15.83
2018-01-27T02:24:51.429Z,16.40
2018-01-27T02:29:54.889Z,16.63
2018-01-27T02:34:58.440Z,17.13
2018-01-27T02:40:02.694Z,16.53
2018-01-27T02:45:06.573Z,16.20
2018-01-27T02:50:11.175Z,17.37
2018-01-27T02:55:14.664Z,15.95
2018-01-27T03:00:18.148Z,14.77
2018-01-27T03:05:22.394Z,14.87
2018-01-27T03:10:26.656Z,12.67
2018-01-27T03:15:29.892Z,12.83
2018-01-27T03:20:34.333Z,13.67
2018-01-27T03:25:38.588Z,14.83
2018-01-27T03:30:42.448Z,15.47
2018-01-27T03:35:45.616Z,15.00
2018-01-27T03:40:49.841Z,16.00
2018-01-27T03:45:53.708Z,14.57
2018-01-27T03:50:57.570Z,14.73
2018-01-27T03:56:02.008Z,13.23
2018-01-27T04:01:06.480Z,15.37
2018-01-27T04:06:10.353Z,15.50
2018-01-27T04:11:13.920Z,15.32
2018-01-27T04:16:17.802Z,15.73
2018-01-27T04:21:20.952Z,15.90
2018-01-27T04:26:24.810Z,16.03
2018-01-27T04:31:29.246Z,17.03
2018-01-27T04:36:33.701Z,16.20
2018-01-27T04:41:38.190Z,16.20
2018-01-27T04:46:42.051Z,16.27
2018-01-27T04:51:46.667Z,16.57
2018-01-27T04:56:51.280Z,16.40
2018-01-27T05:01:54.359Z,18.77
2018-01-27T05:06:58.235Z,16.80
2018-01-27T05:12:02.700Z,18.33
2018-01-27T05:17:07.299Z,17.27
2018-01-27T05:22:11.731Z,17.10
2018-01-27T05:27:14.811Z,15.93
2018-01-27T05:32:19.003Z,16.17
2018-01-27T05:37:22.517Z,16.13
2018-01-27T05:42:27.028Z,16.03
2018-01-27T05:47:31.156Z,15.27
2018-01-27T05:52:34.250Z,16.77
2018-01-27T05:57:38.715Z,16.53
2018-01-27T06:02:43.151Z,17.03
2018-01-27T06:07:47.635Z,16.90
2018-01-27T06:12:52.142Z,16.53
2018-01-27T06:17:57.535Z,17.97
2018-01-27T06:23:01.958Z,17.70
2018-01-27T06:28:06.415Z,18.30
2018-01-27T06:33:10.639Z,19.40
2018-01-27T06:38:14.496Z,19.70
2018-01-27T06:43:18.346Z,20.00
2018-01-27T06:48:22.632Z,19.70
2018-01-27T06:53:27.070Z,19.87
2018-01-27T06:58:30.572Z,18.67
2018-01-27T07:03:33.678Z,19.83
2018-01-27T07:08:38.123Z,20.20
2018-01-27T07:13:42.568Z,17.47
2018-01-27T07:18:46.056Z,20.63
2018-01-27T07:23:50.576Z,19.33
2018-01-27T07:28:54.472Z,17.93
2018-01-27T07:33:58.695Z,17.50
2018-01-27T07:39:02.669Z,17.87
2018-01-27T07:44:07.121Z,18.30
2018-01-27T07:49:11.559Z,17.42
2018-01-27T07:54:15.796Z,18.27
2018-01-27T07:59:19.657Z,16.33
2018-01-27T08:04:23.167Z,20.27
2018-01-27T08:09:26.255Z,19.47
2018-01-27T08:14:30.678Z,21.17
2018-01-27T08:19:35.039Z,21.33
2018-01-27T08:24:39.487Z,21.70
2018-01-27T08:29:44.172Z,19.17
2018-01-27T08:34:48.032Z,20.03
2018-01-27T08:39:52.491Z,20.60
2018-01-27T08:44:55.981Z,21.23
2018-01-27T08:49:59.543Z,21.70
2018-01-27T08:55:04.157Z,23.23
2018-01-27T09:00:08.024Z,18.33
2018-01-27T09:05:12.464Z,19.93
2018-01-27T09:10:16.325Z,19.90
2018-01-27T09:15:20.784Z,21.63
2018-01-27T09:20:25.395Z,22.37
2018-01-27T09:25:29.256Z,19.98
2018-01-27T09:30:33.494Z,22.33
2018-01-27T09:35:37.939Z,22.55
2018-01-27T09:40:42.379Z,21.53
2018-01-27T09:45:45.475Z,22.70
2018-01-27T09:50:49.329Z,23.00
2018-01-27T09:55:53.784Z,22.70
2018-01-27T10:00:58.283Z,21.47
2018-01-27T10:06:02.736Z,21.30
2018-01-27T10:11:05.823Z,19.43
2018-01-27T10:16:10.263Z,22.03
2018-01-27T10:21:14.495Z,22.63
2018-01-27T10:26:19.554Z,22.20
2018-01-27T10:31:23.991Z,23.80
2018-01-27T10:36:27.480Z,25.30
2018-01-27T10:41:30.584Z,24.40
2018-01-27T10:46:35.023Z,23.75
2018-01-27T10:51:39.472Z,23.67
2018-01-27T10:56:43.915Z,23.38
2018-01-27T11:01:47.408Z,22.13
2018-01-27T11:06:50.896Z,23.03
2018-01-27T11:11:54.030Z,19.90
2018-01-27T11:16:58.471Z,18.47
2018-01-27T11:22:01.568Z,18.98
2018-01-27T11:27:04.768Z,20.37
2018-01-27T11:32:09.211Z,24.77
2018-01-27T11:37:13.088Z,26.37
2018-01-27T11:42:17.660Z,27.20
2018-01-27T11:47:21.901Z,24.67
2018-01-27T11:52:26.359Z,26.23
2018-01-27T11:57:30.794Z,27.20
2018-01-27T12:02:35.239Z,27.17
2018-01-27T12:07:39.488Z,25.13
2018-01-27T12:12:43.724Z,24.87
2018-01-27T12:17:47.604Z,26.10
2018-01-27T12:22:52.052Z,26.87
2018-01-27T12:27:57.640Z,25.37
2018-01-27T12:33:02.083Z,24.47
2018-01-27T12:38:06.320Z,23.77
2018-01-27T12:43:10.905Z,22.87
2018-01-27T12:48:15.351Z,21.20
2018-01-27T12:53:19.796Z,18.80
2018-01-27T12:58:24.237Z,18.10
2018-01-27T13:03:28.683Z,18.23
2018-01-27T13:08:33.132Z,18.23
2018-01-27T13:13:37.598Z,16.97
2018-01-27T13:18:41.473Z,17.53
2018-01-27T13:23:45.916Z,18.60
2018-01-27T13:28:50.365Z,18.40
2018-01-27T13:33:54.804Z,17.90
2018-01-27T13:38:58.741Z,17.83
2018-01-27T13:44:03.183Z,18.37
2018-01-27T13:49:07.641Z,17.47
2018-01-27T13:54:11.500Z,17.57
2018-01-27T13:59:15.373Z,16.43
2018-01-27T14:04:19.833Z,16.80
2018-01-27T14:09:23.357Z,17.00
2018-01-27T14:14:27.864Z,16.63
2018-01-27T14:19:32.331Z,17.20
2018-01-27T14:24:36.926Z,16.07
2018-01-27T14:29:41.164Z,16.50
2018-01-27T14:34:45.606Z,16.93
2018-01-27T14:39:50.043Z,16.40
2018-01-27T14:44:53.126Z,16.40
2018-01-27T14:49:57.571Z,16.07
2018-01-27T14:55:01.051Z,17.23
2018-01-27T15:00:05.486Z,17.33
2018-01-27T15:05:08.614Z,16.23
2018-01-27T15:10:13.197Z,17.57
2018-01-27T15:15:17.646Z,18.10
2018-01-27T15:20:22.129Z,17.90
2018-01-27T15:25:26.120Z,16.30
2018-01-27T15:30:30.561Z,15.70
2018-01-27T15:35:35.149Z,16.47
2018-01-27T15:40:41.648Z,14.03
2018-01-27T15:45:46.235Z,15.87
2018-01-27T15:50:50.675Z,14.33
2018-01-27T15:55:55.759Z,13.75
2018-01-27T16:01:00.209Z,13.32
2018-01-27T16:06:04.744Z,13.90
2018-01-27T16:11:09.223Z,12.93
2018-01-27T16:16:12.880Z,11.27
2018-01-27T16:21:17.133Z,10.17
2018-01-27T16:26:21.724Z,11.80
2018-01-27T16:31:26.175Z,11.23
2018-01-27T16:36:30.652Z,11.13
2018-01-27T16:41:35.919Z,10.77
2018-01-27T16:46:40.381Z,10.52
2018-01-27T16:51:43.864Z,10.47
2018-01-27T16:56:48.459Z,10.80
2018-01-27T17:01:51.965Z,11.00
2018-01-27T17:06:55.845Z,9.93
2018-01-27T17:12:00.351Z,12.00
2018-01-27T17:17:04.231Z,11.47
2018-01-27T17:22:07.723Z,11.33
2018-01-27T17:27:11.597Z,11.33
2018-01-27T17:32:15.479Z,11.13
2018-01-27T17:37:20.703Z,11.93
2018-01-27T17:42:25.126Z,11.40
2018-01-27T17:47:28.980Z,11.97
2018-01-27T17:52:32.071Z,12.73
2018-01-27T17:57:36.890Z,12.32
2018-01-27T18:02:41.335Z,11.90
2018-01-27T18:07:45.192Z,11.20
2018-01-27T18:12:49.647Z,11.68
2018-01-27T18:17:53.535Z,12.10
2018-01-27T18:22:58.127Z,11.30
2018-01-27T18:28:01.978Z,13.73
2018-01-27T18:33:06.403Z,11.57
2018-01-27T18:38:10.259Z,17.33
2018-01-27T18:43:13.346Z,11.33
2018-01-27T18:48:17.797Z,12.37
2018-01-27T18:53:22.084Z,10.87
2018-01-27T18:58:26.541Z,10.40
2018-01-27T19:03:30.399Z,11.40
2018-01-27T19:08:34.255Z,9.63
2018-01-27T19:13:38.713Z,14.60
2018-01-27T19:18:42.572Z,9.68
2018-01-27T19:23:46.434Z,10.37
2018-01-27T19:28:49.527Z,10.63
2018-01-27T19:39:21.383Z,9.47
2018-01-27T19:44:26.721Z,9.47
2018-01-27T19:49:30.563Z,9.07
2018-01-27T19:54:35.007Z,9.53
2018-01-27T19:59:39.607Z,8.83
2018-01-27T20:04:42.697Z,9.10
2018-01-27T20:09:45.755Z,8.70
2018-01-27T20:14:50.788Z,8.53
2018-01-27T20:19:54.998Z,8.53
2018-01-27T20:24:59.796Z,8.27
2018-01-27T20:30:03.665Z,8.87
2018-01-27T20:35:07.902Z,8.90
2018-01-27T20:40:12.599Z,8.27
2018-01-27T20:45:16.071Z,8.60
2018-01-27T20:50:19.963Z,8.45
2018-01-27T20:55:24.410Z,8.80
2018-01-27T21:00:28.313Z,8.60
2018-01-27T21:05:32.888Z,8.80
2018-01-27T21:10:37.146Z,9.10
2018-01-27T21:15:40.311Z,9.23
2018-01-27T21:20:44.754Z,9.20
2018-01-27T21:25:49.199Z,10.07
2018-01-27T21:30:52.735Z,9.57
2018-01-27T21:35:57.175Z,10.13
2018-01-27T21:41:01.789Z,9.17
2018-01-27T21:46:04.924Z,9.63
2018-01-27T21:51:09.366Z,9.67
2018-01-27T21:56:12.458Z,9.27
2018-01-27T22:01:15.934Z,9.57
2018-01-27T22:06:20.787Z,8.90
2018-01-27T22:11:25.431Z,7.87
2018-01-27T22:16:28.931Z,8.77
2018-01-27T22:21:32.764Z,6.90
2018-01-27T22:26:36.304Z,7.90
2018-01-27T22:31:42.498Z,7.77
2018-01-27T22:36:45.974Z,7.33
2018-01-27T22:41:50.395Z,7.80
2018-01-27T22:46:54.632Z,7.40
2018-01-27T22:51:59.225Z,7.60
2018-01-27T22:57:03.472Z,7.15
2018-01-27T23:02:06.939Z,7.30
2018-01-27T23:07:11.358Z,7.00
2018-01-27T23:12:14.488Z,7.13
2018-01-27T23:17:19.867Z,6.57
2018-01-27T23:22:24.452Z,6.97
2018-01-27T23:27:28.673Z,7.10
2018-01-27T23:32:33.230Z,7.10
2018-01-27T23:37:36.678Z,7.20
2018-01-27T23:42:40.916Z,6.70
2018-01-27T23:47:44.840Z,7.00
2018-01-27T23:52:49.044Z,7.80
2018-01-27T23:57:53.119Z,6.93
